Gayville, New York
Current Conditions -  °F | °C
As of 2:54 PM on Thursday 29 Jan 2015 (Local Time) from KSYR Reporting Station
Overcast Overcast  
Wind Chill: -6°   Ceiling: 8000
Heat Index:   Visibility: 10mi
Dew Point: -14°   Wind: 14mph
Humidity: 35%   Direction: 130°SE
Pressure: 29.87"   Gusts: NA
Location:  43.2999°N, 76.0002°W
Report Text: KSYR 291954Z 13012KT 10SM OVC080 00/M14 A2987 RMK AO2 SLP119 T00001139
Loading
Personal Weather Stations






























Interactive Weather Map New forecast layout! Learn more

10-Day Weather Forecast

Advertisements
Track Severe Weather on mobile